This is the latest recevied weather packets stored in our database for station/object K7FLA. If no packets are shown the sender has not sent any weather packets the latest 1 day(s).
| Time | Temp. | Humidity | Pressure | Rain* | Wind** | Luminosity | Snow |
|---|---|---|---|---|---|---|---|
| 1778029508 | 13.33° C | 61% | 1093.9 hPa | 0 mm | - | 23 W/m² | - |
| 1778028901 | 13.89° C | 59% | 1094 hPa | 0 mm | - | 35 W/m² | - |
| 1778028596 | 13.89° C | 59% | 1093.8 hPa | 0 mm | - | 32 W/m² | - |
| 1778028294 | 13.89° C | 58% | 1093.8 hPa | 0 mm | - | 13 W/m² | - |
| 1778027990 | 13.89° C | 58% | 1093.9 hPa | 0 mm | - | 11 W/m² | - |
| 1778027383 | 13.89° C | 58% | 1094 hPa | 0 mm | - | 14 W/m² | - |
| 1778027079 | 13.89° C | 57% | 1093.9 hPa | 0 mm | - | 19 W/m² | - |
| 1778026774 | 14.44° C | 57% | 1093.7 hPa | 0 mm | - | 33 W/m² | - |
| 1778026472 | 14.44° C | 56% | 1093.8 hPa | 0 mm | - | 26 W/m² | - |
| 1778026169 | 14.44° C | 56% | 1094.1 hPa | 0 mm | - | 25 W/m² | - |
| 1778025867 | 14.44° C | 56% | 1093.9 hPa | 0 mm | - | 28 W/m² | - |
| 1778023446 | 15.56° C | 52% | 1093.5 hPa | 0 mm | - | 144 W/m² | - |
| 1778020718 | 17.22° C | 49% | 1093.6 hPa | 0 mm | - | 259 W/m² | - |
| 1778020415 | 17.22° C | 49% | 1093.7 hPa | 0 mm | - | 574 W/m² | - |
| 1778019807 | 16.67° C | 50% | 1093.7 hPa | 0 mm | - | 647 W/m² | - |
| 1778019201 | 17.78° C | 48% | 1093.7 hPa | 0 mm | - | 192 W/m² | - |
| 1778018898 | 18.33° C | 47% | 1093.9 hPa | 0 mm | - | 241 W/m² | - |
| 1778018595 | 18.33° C | 49% | 1093.8 hPa | 0 mm | - | 496 W/m² | - |
| 1778014052 | 17.78° C | 52% | 1094.7 hPa | 0 mm | - | 1096 W/m² | - |
| 1778013750 | 17.78° C | 52% | 1094.6 hPa | 0 mm | - | 288 W/m² | - |
| 1778013447 | 17.78° C | 49% | 1094.5 hPa | 0 mm | - | 238 W/m² | - |
| 1778013144 | 17.78° C | 47% | 1094.5 hPa | 0 mm | - | 462 W/m² | - |
| 1778012536 | 16.67° C | 51% | 1094.7 hPa | 0 mm | - | 322 W/m² | - |
| 1778011325 | 17.78° C | 51% | 1094.9 hPa | 0 mm | - | 709 W/m² | - |
| 1778011021 | 16.67° C | 55% | 1094.9 hPa | 0 mm | - | 640 W/m² | - |
* Rain latest hour (hover to see other rain measurements)
** Current wind speed in m/s (hover to see current wind gust speed)